Time;durP1;ratioP1;P1;durP2;ratioP2;P2;SDS_P1;SDS_P2;PMS_P1;PMS_P2;Temp;Humidity;BMP_temperature;BMP_pressure;BME280_temperature;BME280_humidity;BME280_pressure;Samples;Min_cycle;Max_cycle;Signal;HPM_P1;HPM_P2
2023/09/07 00:00:00;;;;;;;;;;;19.80;98.60;;;;;;4988154;28;20329;-33
2023/09/07 00:02:27;;;;;;;;;;;19.70;98.70;;;;;;4995314;28;20357;-32
2023/09/07 00:04:53;;;;;;;;;;;19.70;98.60;;;;;;4995832;28;19944;-33
2023/09/07 00:07:20;;;;;;;;;;;19.60;98.70;;;;;;4994675;28;19953;-32
2023/09/07 00:09:47;;;;;;;;;;;19.60;98.60;;;;;;5009956;28;19966;-31
2023/09/07 00:12:14;;;;;;;;;;;19.60;98.70;;;;;;5002468;28;19953;-31
2023/09/07 00:14:40;;;;;;;;;;;19.60;98.70;;;;;;4995719;28;20312;-33
2023/09/07 00:17:08;;;;;;;;;;;19.60;98.90;;;;;;4995116;28;20402;-31
2023/09/07 00:19:36;;;;;;;;;;;19.50;98.80;;;;;;4993714;28;20078;-32
2023/09/07 00:22:03;;;;;;;;;;;19.50;98.80;;;;;;4995203;28;19942;-32
2023/09/07 00:24:31;;;;;;;;;;;19.50;98.80;;;;;;4994113;28;19945;-32
2023/09/07 00:26:57;;;;;;;;;;;19.50;99.30;;;;;;4993736;28;19948;-33
2023/09/07 00:29:24;;;;;;;;;;;19.40;99.00;;;;;;4988347;28;20002;-31
2023/09/07 00:31:51;;;;;;;;;;;19.40;99.00;;;;;;4994520;28;19945;-30
2023/09/07 00:34:19;;;;;;;;;;;19.40;99.00;;;;;;4994013;28;19953;-32
2023/09/07 00:36:45;;;;;;;;;;;19.40;99.20;;;;;;4994569;28;19944;-32
2023/09/07 00:39:12;;;;;;;;;;;19.30;99.30;;;;;;4993114;28;20423;-33
2023/09/07 00:41:39;;;;;;;;;;;19.30;99.30;;;;;;4994974;28;20007;-32
2023/09/07 00:44:06;;;;;;;;;;;19.30;99.40;;;;;;4994069;28;19950;-32
2023/09/07 00:46:32;;;;;;;;;;;19.20;99.50;;;;;;4994079;28;20011;-33
2023/09/07 00:48:59;;;;;;;;;;;19.20;99.50;;;;;;4993772;28;20407;-32
2023/09/07 00:51:27;;;;;;;;;;;19.20;99.50;;;;;;4994120;28;20346;-32
2023/09/07 00:53:54;;;;;;;;;;;19.20;99.90;;;;;;4993481;28;19947;-33
2023/09/07 00:56:20;;;;;;;;;;;19.10;99.50;;;;;;4994404;28;19950;-32
2023/09/07 00:58:47;;;;;;;;;;;19.10;99.70;;;;;;4992730;28;19950;-32
2023/09/07 01:01:14;;;;;;;;;;;19.10;99.70;;;;;;4994781;28;20416;-33
2023/09/07 01:03:40;;;;;;;;;;;19.10;99.80;;;;;;4994466;28;20001;-32
2023/09/07 01:06:08;;;;;;;;;;;19.00;99.80;;;;;;4994557;28;19954;-33
2023/09/07 01:08:39;;;;;;;;;;;19.00;99.90;;;;;;4998483;28;20374;-33
2023/09/07 01:11:13;;;;;;;;;;;18.90;99.90;;;;;;4993087;28;19947;-32
2023/09/07 01:13:40;;;;;;;;;;;19.00;99.90;;;;;;4994573;28;19945;-32
2023/09/07 01:16:06;;;;;;;;;;;18.90;99.90;;;;;;4993950;28;19947;-32
2023/09/07 01:18:33;;;;;;;;;;;18.90;99.90;;;;;;4993867;28;19972;-32
2023/09/07 01:21:00;;;;;;;;;;;18.80;99.90;;;;;;4986748;28;19964;-31
2023/09/07 01:23:28;;;;;;;;;;;18.80;99.90;;;;;;4984461;28;19950;-31
2023/09/07 01:25:54;;;;;;;;;;;18.80;99.90;;;;;;4994516;28;19992;-33
2023/09/07 01:28:21;;;;;;;;;;;18.80;99.90;;;;;;4992106;28;19939;-31
2023/09/07 01:30:48;;;;;;;;;;;18.70;99.90;;;;;;4994052;28;19968;-32
2023/09/07 01:33:15;;;;;;;;;;;18.70;99.90;;;;;;4993827;28;19949;-32
2023/09/07 01:35:41;;;;;;;;;;;18.70;99.90;;;;;;4994121;28;19952;-31
2023/09/07 01:38:08;;;;;;;;;;;18.70;99.90;;;;;;4993106;28;20041;-32
2023/09/07 01:40:36;;;;;;;;;;;18.70;99.90;;;;;;4993502;28;19968;-32
2023/09/07 01:43:03;;;;;;;;;;;18.60;99.90;;;;;;4994144;28;19951;-32
2023/09/07 01:45:29;;;;;;;;;;;18.60;99.90;;;;;;4992696;28;19945;-32
2023/09/07 01:47:56;;;;;;;;;;;18.60;99.90;;;;;;4994050;28;19957;-31
2023/09/07 01:50:25;;;;;;;;;;;18.50;99.90;;;;;;4990018;28;19988;-32
2023/09/07 01:52:52;;;;;;;;;;;18.50;99.90;;;;;;4988285;28;19946;-33
2023/09/07 01:55:18;;;;;;;;;;;18.40;99.90;;;;;;4992379;28;20359;-32
2023/09/07 01:57:46;;;;;;;;;;;18.40;99.90;;;;;;4991867;28;20080;-32
2023/09/07 02:00:13;;;;;;;;;;;18.40;99.90;;;;;;4991113;28;19965;-32
2023/09/07 02:02:40;;;;;;;;;;;18.40;99.90;;;;;;4978065;28;19947;-31
2023/09/07 02:05:07;;;;;;;;;;;18.40;99.90;;;;;;4991193;28;20000;-33
2023/09/07 02:07:34;;;;;;;;;;;18.30;99.90;;;;;;4993190;28;19943;-32
2023/09/07 02:10:03;;;;;;;;;;;18.30;99.90;;;;;;4991960;28;19961;-32
2023/09/07 02:12:29;;;;;;;;;;;18.30;99.90;;;;;;4992455;28;19952;-31
2023/09/07 02:14:57;;;;;;;;;;;18.20;99.90;;;;;;4992126;28;19946;-31
2023/09/07 02:17:24;;;;;;;;;;;18.20;99.90;;;;;;4991335;28;20444;-32
2023/09/07 02:19:51;;;;;;;;;;;18.20;99.90;;;;;;4989195;28;19961;-31
2023/09/07 02:22:17;;;;;;;;;;;18.10;99.90;;;;;;4990744;28;19947;-31
2023/09/07 02:24:44;;;;;;;;;;;18.10;99.90;;;;;;4991454;28;20358;-31
2023/09/07 02:27:11;;;;;;;;;;;18.10;99.90;;;;;;4991229;28;19943;-32
2023/09/07 02:29:37;;;;;;;;;;;18.10;99.90;;;;;;4991268;28;20437;-32
2023/09/07 02:32:06;;;;;;;;;;;18.00;99.90;;;;;;4993115;28;20350;-32
2023/09/07 02:34:36;;;;;;;;;;;18.00;99.90;;;;;;4991668;28;19949;-32
2023/09/07 02:37:03;;;;;;;;;;;18.00;99.90;;;;;;4990170;28;20291;-32
2023/09/07 02:39:29;;;;;;;;;;;17.90;99.90;;;;;;4992367;28;19995;-32
2023/09/07 02:41:56;;;;;;;;;;;18.00;99.90;;;;;;4992379;28;19987;-32
2023/09/07 02:44:23;;;;;;;;;;;17.90;99.90;;;;;;4989946;28;19992;-32
2023/09/07 02:46:49;;;;;;;;;;;17.90;99.90;;;;;;4990272;28;20401;-32
2023/09/07 02:49:17;;;;;;;;;;;17.90;99.90;;;;;;4991547;28;20018;-31
2023/09/07 02:51:44;;;;;;;;;;;17.90;99.90;;;;;;4990762;28;19954;-31
2023/09/07 02:54:11;;;;;;;;;;;17.80;99.90;;;;;;4990339;28;20039;-32
2023/09/07 02:56:38;;;;;;;;;;;17.80;99.90;;;;;;4992371;28;19987;-32
2023/09/07 02:59:04;;;;;;;;;;;17.80;99.90;;;;;;4994219;28;19944;-32
2023/09/07 03:01:31;;;;;;;;;;;17.80;99.90;;;;;;4995823;28;20043;-32
2023/09/07 03:03:58;;;;;;;;;;;17.80;99.90;;;;;;4989621;28;20349;-32
2023/09/07 03:06:26;;;;;;;;;;;17.70;99.90;;;;;;4992817;28;19990;-33
2023/09/07 03:08:53;;;;;;;;;;;17.70;99.90;;;;;;4994777;28;20425;-34
2023/09/07 03:11:19;;;;;;;;;;;17.70;99.90;;;;;;4995501;28;19946;-32
2023/09/07 03:13:46;;;;;;;;;;;17.70;99.90;;;;;;4995643;28;20402;-32
2023/09/07 03:16:13;;;;;;;;;;;17.60;99.90;;;;;;4996637;28;19946;-32
2023/09/07 03:18:40;;;;;;;;;;;17.60;99.90;;;;;;4996679;28;19944;-31
2023/09/07 03:21:07;;;;;;;;;;;17.60;99.90;;;;;;4995794;28;19960;-32
2023/09/07 03:23:35;;;;;;;;;;;17.60;99.90;;;;;;4995782;28;19996;-32
2023/09/07 03:26:02;;;;;;;;;;;17.60;99.90;;;;;;4995156;28;19945;-32
2023/09/07 03:28:29;;;;;;;;;;;17.60;99.90;;;;;;4995668;28;19959;-32
2023/09/07 03:30:55;;;;;;;;;;;17.50;99.90;;;;;;4994807;28;19948;-32
2023/09/07 03:33:23;;;;;;;;;;;17.50;99.90;;;;;;4994640;28;19999;-32
2023/09/07 03:35:51;;;;;;;;;;;17.50;99.90;;;;;;4995557;28;19943;-32
2023/09/07 03:38:18;;;;;;;;;;;17.50;99.90;;;;;;4995147;28;20024;-32
2023/09/07 03:40:46;;;;;;;;;;;17.50;99.90;;;;;;4995225;28;19970;-33
2023/09/07 03:43:13;;;;;;;;;;;17.50;99.90;;;;;;4986895;28;19953;-32
2023/09/07 03:45:39;;;;;;;;;;;17.40;99.90;;;;;;4989753;28;19946;-32
2023/09/07 03:48:06;;;;;;;;;;;17.50;99.90;;;;;;4994852;28;19995;-31
2023/09/07 03:50:33;;;;;;;;;;;17.50;99.90;;;;;;4995533;28;20069;-32
2023/09/07 03:52:59;;;;;;;;;;;17.50;99.90;;;;;;4994505;28;20138;-32
2023/09/07 03:55:26;;;;;;;;;;;17.50;99.90;;;;;;4994383;28;20004;-32
2023/09/07 03:57:54;;;;;;;;;;;17.50;99.90;;;;;;4994673;28;20354;-31
2023/09/07 04:00:21;;;;;;;;;;;17.50;99.90;;;;;;4995422;28;19999;-31
2023/09/07 04:02:48;;;;;;;;;;;17.50;99.90;;;;;;4994391;28;19951;-32
2023/09/07 04:05:14;;;;;;;;;;;17.50;99.90;;;;;;4993736;28;19989;-32
2023/09/07 04:07:41;;;;;;;;;;;17.50;99.90;;;;;;4995931;28;19943;-31
2023/09/07 04:10:08;;;;;;;;;;;17.50;99.90;;;;;;5014451;28;20453;-31
2023/09/07 04:12:35;;;;;;;;;;;17.50;99.90;;;;;;5005564;28;20361;-32
2023/09/07 04:15:04;;;;;;;;;;;17.40;99.90;;;;;;4993591;28;19997;-31
2023/09/07 04:17:32;;;;;;;;;;;17.40;99.90;;;;;;4994475;28;19954;-31
2023/09/07 04:19:59;;;;;;;;;;;17.40;99.90;;;;;;4990118;28;19949;-31
2023/09/07 04:22:25;;;;;;;;;;;17.30;99.90;;;;;;4995192;28;19946;-32
2023/09/07 04:24:52;;;;;;;;;;;17.30;99.90;;;;;;4993443;28;20377;-32
2023/09/07 04:27:19;;;;;;;;;;;17.30;99.90;;;;;;4994524;28;20396;-32
2023/09/07 04:29:45;;;;;;;;;;;17.30;99.90;;;;;;4995580;28;19946;-32
2023/09/07 04:32:13;;;;;;;;;;;17.30;99.90;;;;;;4995389;28;19945;-32
2023/09/07 04:34:40;;;;;;;;;;;17.30;99.90;;;;;;4990552;28;19945;-31
2023/09/07 04:37:07;;;;;;;;;;;17.20;99.90;;;;;;4994100;28;20360;-31
2023/09/07 04:39:33;;;;;;;;;;;17.20;99.90;;;;;;4994023;28;19975;-31
2023/09/07 04:42:00;;;;;;;;;;;17.10;99.90;;;;;;4995042;28;20483;-31
2023/09/07 04:44:28;;;;;;;;;;;17.10;99.90;;;;;;4993353;28;19954;-32
2023/09/07 04:46:55;;;;;;;;;;;17.20;99.90;;;;;;4995252;28;19947;-31
2023/09/07 04:49:23;;;;;;;;;;;17.10;99.90;;;;;;4995397;28;20000;-32
2023/09/07 04:51:50;;;;;;;;;;;17.10;99.90;;;;;;4994319;28;19956;-32
2023/09/07 04:54:17;;;;;;;;;;;17.10;99.90;;;;;;4994033;28;19942;-31
2023/09/07 04:56:43;;;;;;;;;;;17.10;99.90;;;;;;4993764;28;19943;-32
2023/09/07 04:59:10;;;;;;;;;;;17.10;99.90;;;;;;4994077;28;19957;-31
2023/09/07 05:01:37;;;;;;;;;;;17.10;99.90;;;;;;4990853;28;20489;-32
2023/09/07 05:04:03;;;;;;;;;;;17.00;99.90;;;;;;4993685;28;20475;-32
2023/09/07 05:06:36;;;;;;;;;;;17.00;99.90;;;;;;4993797;28;20034;-32
2023/09/07 05:09:03;;;;;;;;;;;17.00;99.90;;;;;;5000152;28;19969;-32
2023/09/07 05:11:30;;;;;;;;;;;17.00;99.90;;;;;;4993889;28;19946;-31
2023/09/07 05:13:56;;;;;;;;;;;17.00;99.90;;;;;;4993250;28;20024;-33
2023/09/07 05:16:23;;;;;;;;;;;17.00;99.90;;;;;;4994550;28;20377;-32
2023/09/07 05:18:49;;;;;;;;;;;17.00;99.90;;;;;;4992429;28;19945;-32
2023/09/07 05:21:16;;;;;;;;;;;17.00;99.90;;;;;;4993328;28;20376;-34
2023/09/07 05:23:44;;;;;;;;;;;17.00;99.90;;;;;;4988549;28;19945;-32
2023/09/07 05:26:11;;;;;;;;;;;16.90;99.90;;;;;;4987651;28;20074;-31
2023/09/07 05:28:37;;;;;;;;;;;16.90;99.90;;;;;;4993132;28;19949;-29
2023/09/07 05:31:04;;;;;;;;;;;16.90;99.90;;;;;;4993882;28;20445;-31
2023/09/07 05:33:31;;;;;;;;;;;16.90;99.90;;;;;;4994390;28;20303;-32
2023/09/07 05:35:57;;;;;;;;;;;16.90;99.90;;;;;;4994203;28;19992;-32
2023/09/07 05:38:24;;;;;;;;;;;16.90;99.90;;;;;;4994316;28;19949;-32
2023/09/07 05:40:54;;;;;;;;;;;17.00;99.90;;;;;;4993367;28;19982;-32
2023/09/07 05:43:20;;;;;;;;;;;16.90;99.90;;;;;;4993484;28;19943;-32
2023/09/07 05:45:47;;;;;;;;;;;17.00;99.90;;;;;;4991126;28;19990;-32
2023/09/07 05:48:16;;;;;;;;;;;17.00;99.90;;;;;;4961208;22;19970;-32
2023/09/07 05:50:43;;;;;;;;;;;17.00;99.90;;;;;;4990852;28;20387;-32
2023/09/07 05:53:09;;;;;;;;;;;17.00;99.90;;;;;;4980970;28;19939;-32
2023/09/07 05:55:36;;;;;;;;;;;17.10;99.90;;;;;;4990210;28;19956;-31
2023/09/07 05:58:05;;;;;;;;;;;17.10;99.90;;;;;;4976606;28;19987;-32
2023/09/07 06:00:33;;;;;;;;;;;17.10;99.90;;;;;;4964910;28;19948;-31
2023/09/07 06:02:59;;;;;;;;;;;17.20;99.90;;;;;;4970423;28;19945;-32
2023/09/07 06:05:26;;;;;;;;;;;17.30;99.90;;;;;;4973410;28;19948;-32
2023/09/07 06:07:53;;;;;;;;;;;17.30;99.90;;;;;;4991111;28;19947;-34
2023/09/07 06:10:20;;;;;;;;;;;17.40;99.90;;;;;;4992039;28;19999;-31
2023/09/07 06:12:46;;;;;;;;;;;17.50;99.90;;;;;;4992178;28;20012;-35
2023/09/07 06:15:13;;;;;;;;;;;17.60;99.90;;;;;;4991931;28;19959;-31
2023/09/07 06:17:41;;;;;;;;;;;17.60;99.90;;;;;;4991306;28;20374;-32
2023/09/07 06:20:09;;;;;;;;;;;17.80;99.90;;;;;;4991844;28;20368;-32
2023/09/07 06:22:35;;;;;;;;;;;17.90;99.90;;;;;;4992355;28;19968;-32
2023/09/07 06:25:02;;;;;;;;;;;17.90;99.90;;;;;;4973891;28;19950;-32
2023/09/07 06:27:29;;;;;;;;;;;18.10;99.90;;;;;;4991018;28;19947;-33
2023/09/07 06:29:56;;;;;;;;;;;18.20;99.90;;;;;;4970499;28;19953;-32
2023/09/07 06:32:22;;;;;;;;;;;18.30;99.90;;;;;;4959994;28;20013;-33
2023/09/07 06:34:50;;;;;;;;;;;18.40;99.90;;;;;;4992010;28;19945;-32
2023/09/07 06:37:17;;;;;;;;;;;18.50;99.90;;;;;;4990289;28;19961;-33
2023/09/07 06:39:44;;;;;;;;;;;18.60;99.90;;;;;;4974841;28;19952;-32
2023/09/07 06:42:11;;;;;;;;;;;18.70;99.90;;;;;;4974188;28;19964;-32
2023/09/07 06:44:37;;;;;;;;;;;18.80;99.90;;;;;;4991891;28;20385;-33
2023/09/07 06:47:04;;;;;;;;;;;18.90;99.90;;;;;;4989191;28;20369;-32
2023/09/07 06:49:31;;;;;;;;;;;19.00;99.90;;;;;;4973935;28;19952;-31
2023/09/07 06:51:59;;;;;;;;;;;19.10;99.90;;;;;;4989752;28;19950;-31
2023/09/07 06:54:25;;;;;;;;;;;19.30;99.90;;;;;;4973410;28;19951;-31
2023/09/07 06:56:52;;;;;;;;;;;19.30;99.90;;;;;;4983571;28;20452;-32
2023/09/07 06:59:19;;;;;;;;;;;19.50;99.90;;;;;;4993652;28;19942;-32
2023/09/07 07:01:45;;;;;;;;;;;19.60;99.90;;;;;;4996537;28;20050;-34
2023/09/07 07:04:12;;;;;;;;;;;19.70;99.90;;;;;;4991632;28;19992;-32
2023/09/07 07:06:39;;;;;;;;;;;19.90;99.90;;;;;;4974338;28;20434;-33
2023/09/07 07:09:09;;;;;;;;;;;20.00;99.90;;;;;;4990854;28;19990;-33
2023/09/07 07:11:35;;;;;;;;;;;20.10;99.90;;;;;;4991308;28;19952;-32
2023/09/07 07:14:02;;;;;;;;;;;20.20;99.90;;;;;;4991096;28;19995;-32
2023/09/07 07:16:29;;;;;;;;;;;20.40;99.90;;;;;;4991446;28;19942;-33
2023/09/07 07:18:55;;;;;;;;;;;20.50;99.90;;;;;;4973712;28;19954;-33
2023/09/07 07:21:22;;;;;;;;;;;20.60;99.90;;;;;;4973354;28;19963;-33
2023/09/07 07:23:49;;;;;;;;;;;20.70;99.90;;;;;;4989259;28;19949;-32
2023/09/07 07:26:17;;;;;;;;;;;20.90;99.90;;;;;;4988045;28;19956;-33
2023/09/07 07:28:44;;;;;;;;;;;21.00;99.90;;;;;;4971911;28;19953;-31
2023/09/07 07:31:10;;;;;;;;;;;21.10;99.90;;;;;;4989713;28;19958;-31
2023/09/07 07:33:37;;;;;;;;;;;21.30;99.90;;;;;;4971109;28;19981;-31
2023/09/07 07:36:04;;;;;;;;;;;21.40;99.90;;;;;;4986226;28;20011;-31
2023/09/07 07:38:31;;;;;;;;;;;21.50;99.90;;;;;;4987122;28;20381;-32
2023/09/07 07:40:58;;;;;;;;;;;21.60;99.90;;;;;;4987135;28;19953;-33
2023/09/07 07:43:26;;;;;;;;;;;21.70;99.90;;;;;;4977558;28;19953;-34
2023/09/07 07:45:53;;;;;;;;;;;21.90;99.90;;;;;;4993357;28;20453;-32
2023/09/07 07:48:20;;;;;;;;;;;22.00;99.90;;;;;;4985855;28;20450;-33
2023/09/07 07:50:46;;;;;;;;;;;22.10;99.90;;;;;;4988109;28;19945;-33
2023/09/07 07:53:14;;;;;;;;;;;22.20;99.90;;;;;;4978226;28;19952;-29
2023/09/07 07:55:41;;;;;;;;;;;22.40;99.90;;;;;;4990573;28;19941;-32
2023/09/07 07:58:08;;;;;;;;;;;22.50;99.90;;;;;;4964871;28;20424;-32
2023/09/07 08:00:36;;;;;;;;;;;22.60;99.90;;;;;;4968718;28;19946;-32
2023/09/07 08:03:05;;;;;;;;;;;22.70;99.90;;;;;;4975049;28;20435;-32
2023/09/07 08:05:32;;;;;;;;;;;22.90;99.90;;;;;;4965189;28;20042;-33
2023/09/07 08:07:58;;;;;;;;;;;23.00;99.90;;;;;;4993086;28;20270;-34
2023/09/07 08:10:26;;;;;;;;;;;23.00;99.90;;;;;;4992789;28;20408;-32
2023/09/07 08:12:54;;;;;;;;;;;23.20;99.90;;;;;;4973911;28;19939;-33
2023/09/07 08:15:24;;;;;;;;;;;23.30;99.90;;;;;;4991901;28;20472;-32
2023/09/07 08:17:52;;;;;;;;;;;23.40;99.90;;;;;;4987769;28;19942;-32
2023/09/07 08:20:19;;;;;;;;;;;23.50;99.90;;;;;;4989693;28;19985;-32
2023/09/07 08:22:46;;;;;;;;;;;23.60;99.90;;;;;;4973678;28;20328;-32
2023/09/07 08:25:13;;;;;;;;;;;23.70;99.90;;;;;;4990136;28;19949;-31
2023/09/07 08:27:44;;;;;;;;;;;23.90;99.90;;;;;;4974444;28;19986;-31
2023/09/07 08:30:11;;;;;;;;;;;24.00;99.90;;;;;;4993126;28;19952;-34
2023/09/07 08:32:38;;;;;;;;;;;24.10;99.80;;;;;;4993141;28;19949;-33
2023/09/07 08:35:09;;;;;;;;;;;24.30;99.90;;;;;;4975563;28;20391;-32
2023/09/07 08:37:35;;;;;;;;;;;24.40;98.80;;;;;;4993441;28;19983;-31
2023/09/07 08:40:04;;;;;;;;;;;24.50;98.60;;;;;;4974680;28;19946;-32
2023/09/07 08:42:31;;;;;;;;;;;24.60;99.30;;;;;;4975970;28;19963;-33
2023/09/07 08:44:58;;;;;;;;;;;24.70;98.80;;;;;;4990302;28;20018;-32
2023/09/07 08:47:25;;;;;;;;;;;24.80;98.40;;;;;;4991629;28;20418;-32
2023/09/07 08:49:51;;;;;;;;;;;24.90;98.00;;;;;;4989104;28;20360;-31
2023/09/07 08:52:19;;;;;;;;;;;25.10;98.10;;;;;;4971634;28;20330;-32
2023/09/07 08:54:46;;;;;;;;;;;25.20;97.10;;;;;;4971341;28;20021;-32
2023/09/07 08:57:13;;;;;;;;;;;25.40;97.30;;;;;;4987629;28;19988;-34
2023/09/07 08:59:39;;;;;;;;;;;25.40;96.70;;;;;;4986871;28;19949;-32
2023/09/07 09:02:08;;;;;;;;;;;25.50;96.60;;;;;;4992515;28;19964;-32
2023/09/07 09:04:34;;;;;;;;;;;25.60;96.50;;;;;;4990740;28;19944;-33
2023/09/07 09:07:03;;;;;;;;;;;25.70;97.70;;;;;;4975645;28;20001;-33
2023/09/07 09:09:32;;;;;;;;;;;25.90;96.20;;;;;;4991288;28;19958;-32
2023/09/07 09:12:07;;;;;;;;;;;26.00;96.30;;;;;;4989402;28;20294;-32
2023/09/07 09:14:34;;;;;;;;;;;26.10;95.60;;;;;;4970090;28;19951;-32
2023/09/07 09:17:00;;;;;;;;;;;26.10;95.80;;;;;;4976174;28;19947;-33
2023/09/07 09:19:33;;;;;;;;;;;26.30;95.40;;;;;;4993302;28;19989;-32
2023/09/07 09:22:00;;;;;;;;;;;26.30;95.70;;;;;;4992516;28;19970;-32
2023/09/07 09:24:26;;;;;;;;;;;26.50;94.80;;;;;;4975179;28;19944;-33
2023/09/07 09:26:54;;;;;;;;;;;26.60;95.10;;;;;;4993242;28;19945;-33
2023/09/07 09:29:22;;;;;;;;;;;26.70;95.40;;;;;;4975404;28;20326;-31
2023/09/07 09:31:49;;;;;;;;;;;26.80;94.40;;;;;;4974598;28;20402;-33
2023/09/07 09:34:16;;;;;;;;;;;26.80;95.10;;;;;;4976023;28;19947;-34
2023/09/07 09:36:42;;;;;;;;;;;27.00;95.00;;;;;;4994842;28;20299;-33
2023/09/07 09:39:09;;;;;;;;;;;27.00;93.80;;;;;;4995016;28;20701;-32
2023/09/07 09:41:36;;;;;;;;;;;27.10;94.40;;;;;;4992708;28;19946;-31
2023/09/07 09:44:05;;;;;;;;;;;27.20;93.10;;;;;;4993087;28;19940;-32
2023/09/07 09:46:32;;;;;;;;;;;27.30;92.90;;;;;;4992763;28;20200;-33
2023/09/07 09:48:59;;;;;;;;;;;27.30;92.60;;;;;;4992852;28;19951;-34
2023/09/07 09:51:25;;;;;;;;;;;27.30;93.50;;;;;;4991880;28;19947;-32
2023/09/07 09:53:52;;;;;;;;;;;27.40;93.10;;;;;;4992856;28;19950;-33
2023/09/07 09:56:20;;;;;;;;;;;27.50;94.10;;;;;;4992444;28;19951;-32
2023/09/07 09:58:47;;;;;;;;;;;27.60;92.00;;;;;;4992624;28;20066;-32
2023/09/07 10:01:15;;;;;;;;;;;27.70;92.80;;;;;;4991263;28;20240;-32
2023/09/07 10:03:45;;;;;;;;;;;27.80;92.70;;;;;;4973841;28;19964;-32
2023/09/07 10:06:13;;;;;;;;;;;27.80;91.10;;;;;;4974115;28;19992;-31
2023/09/07 10:08:40;;;;;;;;;;;27.90;92.10;;;;;;4974351;28;20031;-31
2023/09/07 10:11:08;;;;;;;;;;;28.00;92.10;;;;;;4991258;28;19953;-32
2023/09/07 10:13:35;;;;;;;;;;;28.10;92.50;;;;;;4991911;28;19958;-34
2023/09/07 10:16:04;;;;;;;;;;;28.10;89.80;;;;;;4991936;28;19951;-32
2023/09/07 10:18:35;;;;;;;;;;;28.10;90.10;;;;;;4991646;28;20001;-32
2023/09/07 10:21:02;;;;;;;;;;;28.20;91.30;;;;;;4973799;28;19946;-32
2023/09/07 10:23:36;;;;;;;;;;;28.20;90.10;;;;;;4971403;28;19962;-32
2023/09/07 10:26:04;;;;;;;;;;;28.30;91.50;;;;;;4990427;28;19954;-33
2023/09/07 10:28:30;;;;;;;;;;;28.40;90.50;;;;;;4973866;28;20003;-34
2023/09/07 10:31:03;;;;;;;;;;;28.50;90.20;;;;;;4974599;28;20415;-31
2023/09/07 10:33:30;;;;;;;;;;;28.50;87.80;;;;;;4991047;28;20031;-32
2023/09/07 10:35:58;;;;;;;;;;;28.60;90.30;;;;;;5005873;28;20314;-33
2023/09/07 10:38:24;;;;;;;;;;;28.70;89.60;;;;;;4972769;28;20420;-34
2023/09/07 10:40:57;;;;;;;;;;;28.80;88.70;;;;;;4973821;28;19971;-32
2023/09/07 10:43:24;;;;;;;;;;;28.90;89.40;;;;;;4991616;28;20017;-31
2023/09/07 10:45:50;;;;;;;;;;;29.00;86.40;;;;;;4989705;28;19950;-32
2023/09/07 10:48:17;;;;;;;;;;;28.90;87.60;;;;;;4973906;28;19966;-31
2023/09/07 10:50:44;;;;;;;;;;;29.00;85.80;;;;;;4990491;28;20004;-33
2023/09/07 10:53:14;;;;;;;;;;;29.10;88.30;;;;;;4974339;28;19945;-32
2023/09/07 10:55:41;;;;;;;;;;;29.20;86.00;;;;;;4990236;28;19945;-33
2023/09/07 10:58:08;;;;;;;;;;;29.30;89.00;;;;;;4991078;28;20040;-33
2023/09/07 11:00:35;;;;;;;;;;;29.50;86.80;;;;;;4991189;28;19943;-35
2023/09/07 11:03:07;;;;;;;;;;;29.60;85.20;;;;;;4990876;28;20008;-32
2023/09/07 11:05:34;;;;;;;;;;;29.60;83.90;;;;;;4973223;28;19956;-33
2023/09/07 11:08:01;;;;;;;;;;;29.60;83.80;;;;;;4989637;28;19944;-31
2023/09/07 11:10:29;;;;;;;;;;;29.70;85.10;;;;;;4988578;28;19951;-31
2023/09/07 11:12:56;;;;;;;;;;;29.70;81.80;;;;;;4972711;28;20178;-33
2023/09/07 11:15:22;;;;;;;;;;;29.80;83.70;;;;;;4988554;28;19941;-33
2023/09/07 11:17:49;;;;;;;;;;;29.80;82.60;;;;;;4975760;28;19994;-34
2023/09/07 11:20:16;;;;;;;;;;;29.90;81.30;;;;;;4979048;28;20404;-34
2023/09/07 11:22:42;;;;;;;;;;;30.00;81.60;;;;;;4979338;28;20000;-32
2023/09/07 11:25:09;;;;;;;;;;;30.10;82.90;;;;;;4978095;28;19943;-32
2023/09/07 11:27:37;;;;;;;;;;;30.20;83.40;;;;;;4979444;28;19992;-31
2023/09/07 11:30:07;;;;;;;;;;;30.30;83.10;;;;;;4996598;28;19953;-33
2023/09/07 11:32:34;;;;;;;;;;;30.30;83.90;;;;;;4995715;28;19965;-32
2023/09/07 11:35:01;;;;;;;;;;;30.50;84.30;;;;;;4997023;28;19997;-36
2023/09/07 11:37:27;;;;;;;;;;;30.60;84.10;;;;;;4996543;28;19988;-32
2023/09/07 11:39:54;;;;;;;;;;;30.80;83.20;;;;;;4995948;28;19951;-32
2023/09/07 11:42:20;;;;;;;;;;;30.90;84.20;;;;;;4994223;28;20370;-32
2023/09/07 11:44:48;;;;;;;;;;;31.00;83.20;;;;;;4978872;28;19991;-33
2023/09/07 11:47:16;;;;;;;;;;;31.00;82.00;;;;;;4996412;28;20026;-32
2023/09/07 11:49:42;;;;;;;;;;;31.10;79.10;;;;;;4996333;28;20366;-33
2023/09/07 11:52:09;;;;;;;;;;;31.10;78.70;;;;;;4995742;28;20393;-33
2023/09/07 11:54:37;;;;;;;;;;;31.10;77.20;;;;;;4996084;28;19944;-34
2023/09/07 11:57:03;;;;;;;;;;;31.10;77.20;;;;;;4976969;28;19956;-34
2023/09/07 11:59:30;;;;;;;;;;;31.10;77.80;;;;;;4994254;28;19954;-33
2023/09/07 12:01:58;;;;;;;;;;;31.20;78.10;;;;;;4995849;28;20291;-32
2023/09/07 12:04:25;;;;;;;;;;;31.30;76.50;;;;;;4978412;28;19969;-33
2023/09/07 12:06:51;;;;;;;;;;;31.30;76.40;;;;;;4996030;28;20004;-33
2023/09/07 12:09:18;;;;;;;;;;;31.40;77.50;;;;;;4994864;28;20317;-33
2023/09/07 12:11:45;;;;;;;;;;;31.40;77.90;;;;;;4995758;28;19951;-33
2023/09/07 12:14:11;;;;;;;;;;;31.50;77.90;;;;;;4991997;28;20397;-37
2023/09/07 12:16:38;;;;;;;;;;;31.50;75.50;;;;;;4995447;28;19945;-33
2023/09/07 12:19:06;;;;;;;;;;;31.50;75.80;;;;;;4995964;28;19953;-32
2023/09/07 12:21:32;;;;;;;;;;;31.60;77.20;;;;;;4995628;28;20315;-34
2023/09/07 12:23:58;;;;;;;;;;;31.70;76.20;;;;;;4993270;28;19960;-33
2023/09/07 12:26:25;;;;;;;;;;;31.70;75.70;;;;;;4995492;28;19946;-33
2023/09/07 12:28:52;;;;;;;;;;;31.70;75.00;;;;;;4994698;28;20047;-32
2023/09/07 12:31:18;;;;;;;;;;;31.80;76.50;;;;;;4974360;28;19952;-34
2023/09/07 12:33:45;;;;;;;;;;;31.90;76.00;;;;;;4977865;28;20458;-33
2023/09/07 12:36:13;;;;;;;;;;;31.90;75.30;;;;;;5011543;28;20429;-32
2023/09/07 12:38:40;;;;;;;;;;;32.00;75.70;;;;;;5015016;28;20392;-32
2023/09/07 12:41:06;;;;;;;;;;;32.10;74.30;;;;;;5014884;28;20468;-33
2023/09/07 12:43:33;;;;;;;;;;;32.20;75.10;;;;;;5003594;28;19966;-33
2023/09/07 12:46:00;;;;;;;;;;;32.30;74.70;;;;;;4960374;28;19945;-33
2023/09/07 12:48:26;;;;;;;;;;;32.40;71.60;;;;;;4958387;28;20026;-32
2023/09/07 12:50:54;;;;;;;;;;;32.40;73.40;;;;;;4991632;28;19975;-33
2023/09/07 12:53:24;;;;;;;;;;;32.50;73.80;;;;;;4994995;28;19955;-32
2023/09/07 12:55:51;;;;;;;;;;;32.60;72.80;;;;;;4993418;28;19946;-32
2023/09/07 12:58:18;;;;;;;;;;;32.60;71.90;;;;;;4993964;28;19946;-33
2023/09/07 13:00:45;;;;;;;;;;;32.60;72.40;;;;;;4995160;28;19953;-35
2023/09/07 13:03:12;;;;;;;;;;;32.70;70.60;;;;;;4995005;28;20336;-34
2023/09/07 13:05:39;;;;;;;;;;;32.80;72.30;;;;;;4993578;28;20036;-33
2023/09/07 13:08:06;;;;;;;;;;;32.80;70.50;;;;;;4994974;28;19945;-33
2023/09/07 13:10:34;;;;;;;;;;;32.80;72.50;;;;;;4993520;28;19946;-34
2023/09/07 13:13:01;;;;;;;;;;;32.90;69.90;;;;;;4994539;28;20427;-36
2023/09/07 13:15:27;;;;;;;;;;;32.90;69.50;;;;;;4977591;28;19951;-33
2023/09/07 13:17:54;;;;;;;;;;;32.90;70.20;;;;;;4977383;28;19952;-34
2023/09/07 13:20:21;;;;;;;;;;;32.80;70.80;;;;;;4977595;28;19949;-35
2023/09/07 13:22:48;;;;;;;;;;;32.80;68.40;;;;;;4992801;28;20305;-31
2023/09/07 13:25:14;;;;;;;;;;;32.70;69.80;;;;;;4994562;28;19948;-32
2023/09/07 13:27:42;;;;;;;;;;;32.80;71.60;;;;;;4977177;28;19945;-33
2023/09/07 13:30:11;;;;;;;;;;;32.80;69.10;;;;;;4977557;28;19955;-33
2023/09/07 13:32:38;;;;;;;;;;;32.80;69.60;;;;;;4967814;28;19983;-33
2023/09/07 13:35:05;;;;;;;;;;;32.80;72.00;;;;;;4989039;28;19946;-32
2023/09/07 13:37:32;;;;;;;;;;;32.90;71.20;;;;;;5001331;28;19943;-32
2023/09/07 13:39:59;;;;;;;;;;;32.90;70.10;;;;;;4993215;28;20398;-34
2023/09/07 13:42:26;;;;;;;;;;;32.80;68.60;;;;;;4990215;28;19942;-31
2023/09/07 13:44:55;;;;;;;;;;;32.70;69.50;;;;;;4988965;28;19970;-33
2023/09/07 13:47:22;;;;;;;;;;;32.80;71.30;;;;;;4990702;28;20305;-33
2023/09/07 13:49:49;;;;;;;;;;;32.80;72.00;;;;;;4976760;28;19950;-34
2023/09/07 13:52:16;;;;;;;;;;;32.80;67.70;;;;;;4992421;28;19940;-33
2023/09/07 13:54:42;;;;;;;;;;;32.80;71.10;;;;;;4993851;28;19946;-32
2023/09/07 13:57:09;;;;;;;;;;;32.80;70.70;;;;;;4975928;28;19950;-34
2023/09/07 13:59:36;;;;;;;;;;;32.80;68.00;;;;;;4974350;28;20021;-36
2023/09/07 14:02:04;;;;;;;;;;;32.80;69.10;;;;;;4992166;28;19945;-33
2023/09/07 14:04:31;;;;;;;;;;;32.80;67.60;;;;;;4974252;28;20476;-34
2023/09/07 14:06:58;;;;;;;;;;;32.80;69.60;;;;;;4973681;28;19954;-32
2023/09/07 14:09:24;;;;;;;;;;;32.90;70.50;;;;;;4993453;28;20406;-33
2023/09/07 14:11:51;;;;;;;;;;;33.00;69.00;;;;;;4975578;28;19999;-34
2023/09/07 14:14:18;;;;;;;;;;;32.90;69.90;;;;;;4992966;28;20353;-32